sensor_id;sensor_type;location;lat;lon;timestamp;temperature;humidity
68511;SHT31;55512;50.102;19.958;2023-06-22T00:00:56;24.99;60.97
68511;SHT31;55512;50.102;19.958;2023-06-22T00:03:24;25.01;61.03
68511;SHT31;55512;50.102;19.958;2023-06-22T00:05:50;25.08;61.02
68511;SHT31;55512;50.102;19.958;2023-06-22T00:08:17;25.13;60.91
68511;SHT31;55512;50.102;19.958;2023-06-22T00:10:44;25.20;60.89
68511;SHT31;55512;50.102;19.958;2023-06-22T00:13:11;25.26;60.86
68511;SHT31;55512;50.102;19.958;2023-06-22T00:15:38;25.30;60.72
68511;SHT31;55512;50.102;19.958;2023-06-22T00:18:06;25.35;60.57
68511;SHT31;55512;50.102;19.958;2023-06-22T00:20:34;25.41;60.59
68511;SHT31;55512;50.102;19.958;2023-06-22T00:23:03;25.44;60.58
68511;SHT31;55512;50.102;19.958;2023-06-22T00:25:42;25.49;60.46
68511;SHT31;55512;50.102;19.958;2023-06-22T00:28:08;25.54;60.36
68511;SHT31;55512;50.102;19.958;2023-06-22T00:30:34;25.57;60.29
68511;SHT31;55512;50.102;19.958;2023-06-22T00:33:00;25.60;60.16
68511;SHT31;55512;50.102;19.958;2023-06-22T00:35:26;25.61;60.10
68511;SHT31;55512;50.102;19.958;2023-06-22T00:37:56;25.63;60.06
68511;SHT31;55512;50.102;19.958;2023-06-22T00:40:25;25.63;59.98
68511;SHT31;55512;50.102;19.958;2023-06-22T00:42:55;25.65;59.91
68511;SHT31;55512;50.102;19.958;2023-06-22T00:45:21;25.66;59.83
68511;SHT31;55512;50.102;19.958;2023-06-22T00:47:49;25.65;59.86
68511;SHT31;55512;50.102;19.958;2023-06-22T00:50:20;25.66;59.83
68511;SHT31;55512;50.102;19.958;2023-06-22T00:52:54;25.66;59.81
68511;SHT31;55512;50.102;19.958;2023-06-22T00:55:24;25.67;59.79
68511;SHT31;55512;50.102;19.958;2023-06-22T00:57:53;25.66;59.72
68511;SHT31;55512;50.102;19.958;2023-06-22T01:00:22;25.65;59.73
68511;SHT31;55512;50.102;19.958;2023-06-22T01:02:50;25.65;59.72
68511;SHT31;55512;50.102;19.958;2023-06-22T01:05:20;25.65;59.71
68511;SHT31;55512;50.102;19.958;2023-06-22T01:13:35;25.64;59.67
68511;SHT31;55512;50.102;19.958;2023-06-22T01:16:15;25.62;59.65
68511;SHT31;55512;50.102;19.958;2023-06-22T01:18:49;25.63;59.53
68511;SHT31;55512;50.102;19.958;2023-06-22T01:21:18;25.57;59.65
68511;SHT31;55512;50.102;19.958;2023-06-22T01:26:35;25.41;59.80
68511;SHT31;55512;50.102;19.958;2023-06-22T01:29:31;25.40;59.71
68511;SHT31;55512;50.102;19.958;2023-06-22T01:32:00;25.36;59.70
68511;SHT31;55512;50.102;19.958;2023-06-22T01:34:28;25.28;59.76
68511;SHT31;55512;50.102;19.958;2023-06-22T01:36:57;25.24;59.82
68511;SHT31;55512;50.102;19.958;2023-06-22T01:39:25;25.23;59.83
68511;SHT31;55512;50.102;19.958;2023-06-22T01:41:51;25.22;59.85
68511;SHT31;55512;50.102;19.958;2023-06-22T01:44:18;25.21;59.80
68511;SHT31;55512;50.102;19.958;2023-06-22T01:46:45;25.21;59.81
68511;SHT31;55512;50.102;19.958;2023-06-22T01:49:11;25.21;59.79
68511;SHT31;55512;50.102;19.958;2023-06-22T01:51:37;25.20;59.74
68511;SHT31;55512;50.102;19.958;2023-06-22T01:54:03;25.17;59.73
68511;SHT31;55512;50.102;19.958;2023-06-22T01:56:30;25.09;59.88
68511;SHT31;55512;50.102;19.958;2023-06-22T02:01:54;24.85;60.38
68511;SHT31;55512;50.102;19.958;2023-06-22T02:04:42;24.84;60.44
68511;SHT31;55512;50.102;19.958;2023-06-22T02:07:17;24.85;60.40
68511;SHT31;55512;50.102;19.958;2023-06-22T02:09:46;24.86;60.37
68511;SHT31;55512;50.102;19.958;2023-06-22T02:12:18;24.91;60.33
68511;SHT31;55512;50.102;19.958;2023-06-22T02:14:49;24.87;60.45
68511;SHT31;55512;50.102;19.958;2023-06-22T02:17:17;24.92;60.33
68511;SHT31;55512;50.102;19.958;2023-06-22T02:19:43;24.86;60.40
68511;SHT31;55512;50.102;19.958;2023-06-22T02:22:09;24.82;60.50
68511;SHT31;55512;50.102;19.958;2023-06-22T02:24:34;24.77;60.62
68511;SHT31;55512;50.102;19.958;2023-06-22T02:27:00;24.66;60.85
68511;SHT31;55512;50.102;19.958;2023-06-22T02:29:27;24.59;61.02
68511;SHT31;55512;50.102;19.958;2023-06-22T02:31:54;24.53;61.16
68511;SHT31;55512;50.102;19.958;2023-06-22T02:34:20;24.47;61.34
68511;SHT31;55512;50.102;19.958;2023-06-22T02:36:49;24.38;61.58
68511;SHT31;55512;50.102;19.958;2023-06-22T02:39:21;24.32;61.70
68511;SHT31;55512;50.102;19.958;2023-06-22T02:41:52;24.25;61.90
68511;SHT31;55512;50.102;19.958;2023-06-22T02:44:20;24.20;62.03
68511;SHT31;55512;50.102;19.958;2023-06-22T02:46:46;24.13;62.17
68511;SHT31;55512;50.102;19.958;2023-06-22T02:49:12;24.09;62.26
68511;SHT31;55512;50.102;19.958;2023-06-22T02:51:39;24.04;62.41
68511;SHT31;55512;50.102;19.958;2023-06-22T02:54:11;23.99;62.49
68511;SHT31;55512;50.102;19.958;2023-06-22T02:56:37;23.95;62.60
68511;SHT31;55512;50.102;19.958;2023-06-22T02:59:03;23.90;62.78
68511;SHT31;55512;50.102;19.958;2023-06-22T03:01:28;23.85;62.93
68511;SHT31;55512;50.102;19.958;2023-06-22T03:03:58;23.84;62.97
68511;SHT31;55512;50.102;19.958;2023-06-22T03:06:23;23.81;63.07
68511;SHT31;55512;50.102;19.958;2023-06-22T03:08:57;23.79;63.11
68511;SHT31;55512;50.102;19.958;2023-06-22T03:11:29;23.80;63.12
68511;SHT31;55512;50.102;19.958;2023-06-22T03:13:56;23.79;63.12
68511;SHT31;55512;50.102;19.958;2023-06-22T03:16:21;23.79;63.14
68511;SHT31;55512;50.102;19.958;2023-06-22T03:18:47;23.81;63.10
68511;SHT31;55512;50.102;19.958;2023-06-22T03:21:13;23.81;63.17
68511;SHT31;55512;50.102;19.958;2023-06-22T03:23:40;23.74;63.23
68511;SHT31;55512;50.102;19.958;2023-06-22T03:26:06;23.68;63.42
68511;SHT31;55512;50.102;19.958;2023-06-22T03:28:33;23.60;63.60
68511;SHT31;55512;50.102;19.958;2023-06-22T03:30:58;23.56;63.68
68511;SHT31;55512;50.102;19.958;2023-06-22T03:33:24;23.54;63.74
68511;SHT31;55512;50.102;19.958;2023-06-22T03:35:49;23.52;63.80
68511;SHT31;55512;50.102;19.958;2023-06-22T03:38:15;23.50;63.90
68511;SHT31;55512;50.102;19.958;2023-06-22T03:40:42;23.46;63.88
68511;SHT31;55512;50.102;19.958;2023-06-22T03:43:07;23.49;63.85
68511;SHT31;55512;50.102;19.958;2023-06-22T03:45:33;23.53;63.77
68511;SHT31;55512;50.102;19.958;2023-06-22T03:47:58;23.57;63.69
68511;SHT31;55512;50.102;19.958;2023-06-22T03:50:25;23.57;63.72
68511;SHT31;55512;50.102;19.958;2023-06-22T03:52:50;23.55;63.79
68511;SHT31;55512;50.102;19.958;2023-06-22T03:55:17;23.46;63.93
68511;SHT31;55512;50.102;19.958;2023-06-22T03:57:44;23.39;64.06
68511;SHT31;55512;50.102;19.958;2023-06-22T04:00:10;23.37;64.13
68511;SHT31;55512;50.102;19.958;2023-06-22T04:02:36;23.36;64.11
68511;SHT31;55512;50.102;19.958;2023-06-22T04:05:02;23.37;64.16
68511;SHT31;55512;50.102;19.958;2023-06-22T04:07:27;23.35;64.16
68511;SHT31;55512;50.102;19.958;2023-06-22T04:09:53;23.34;64.19
68511;SHT31;55512;50.102;19.958;2023-06-22T04:12:18;23.39;64.10
68511;SHT31;55512;50.102;19.958;2023-06-22T04:14:44;23.45;64.00
68511;SHT31;55512;50.102;19.958;2023-06-22T04:17:09;23.52;63.90
68511;SHT31;55512;50.102;19.958;2023-06-22T04:19:34;23.57;63.83
68511;SHT31;55512;50.102;19.958;2023-06-22T04:22:00;23.63;63.72
68511;SHT31;55512;50.102;19.958;2023-06-22T04:24:26;23.68;63.66
68511;SHT31;55512;50.102;19.958;2023-06-22T04:26:51;23.74;63.51
68511;SHT31;55512;50.102;19.958;2023-06-22T04:29:19;23.83;63.27
68511;SHT31;55512;50.102;19.958;2023-06-22T04:31:45;23.87;63.12
68511;SHT31;55512;50.102;19.958;2023-06-22T04:34:15;23.85;63.09
68511;SHT31;55512;50.102;19.958;2023-06-22T04:36:42;23.88;63.06
68511;SHT31;55512;50.102;19.958;2023-06-22T04:39:08;23.86;63.10
68511;SHT31;55512;50.102;19.958;2023-06-22T04:41:39;23.85;63.12
68511;SHT31;55512;50.102;19.958;2023-06-22T04:44:09;23.89;63.09
68511;SHT31;55512;50.102;19.958;2023-06-22T04:46:36;23.89;63.04
68511;SHT31;55512;50.102;19.958;2023-06-22T04:49:05;23.93;63.07
68511;SHT31;55512;50.102;19.958;2023-06-22T04:51:43;23.93;63.04
68511;SHT31;55512;50.102;19.958;2023-06-22T04:54:09;23.92;63.07
68511;SHT31;55512;50.102;19.958;2023-06-22T04:56:35;23.97;63.01
68511;SHT31;55512;50.102;19.958;2023-06-22T04:59:01;24.05;63.05
68511;SHT31;55512;50.102;19.958;2023-06-22T05:01:28;24.13;63.02
68511;SHT31;55512;50.102;19.958;2023-06-22T05:03:55;24.21;62.91
68511;SHT31;55512;50.102;19.958;2023-06-22T05:06:25;24.30;62.76
68511;SHT31;55512;50.102;19.958;2023-06-22T05:08:52;24.39;62.63
68511;SHT31;55512;50.102;19.958;2023-06-22T05:11:22;24.49;62.41
68511;SHT31;55512;50.102;19.958;2023-06-22T05:13:49;24.58;62.28
68511;SHT31;55512;50.102;19.958;2023-06-22T05:16:15;24.69;62.10
68511;SHT31;55512;50.102;19.958;2023-06-22T05:18:40;24.74;62.00
68511;SHT31;55512;50.102;19.958;2023-06-22T05:21:06;24.80;61.94
68511;SHT31;55512;50.102;19.958;2023-06-22T05:23:32;24.89;61.88
68511;SHT31;55512;50.102;19.958;2023-06-22T05:25:57;24.98;61.74
68511;SHT31;55512;50.102;19.958;2023-06-22T05:28:23;25.08;61.58
68511;SHT31;55512;50.102;19.958;2023-06-22T05:30:48;25.17;61.42
68511;SHT31;55512;50.102;19.958;2023-06-22T05:33:14;25.25;61.23
68511;SHT31;55512;50.102;19.958;2023-06-22T05:35:39;25.34;61.06
68511;SHT31;55512;50.102;19.958;2023-06-22T05:38:04;25.45;60.86
68511;SHT31;55512;50.102;19.958;2023-06-22T05:40:30;25.55;60.71
68511;SHT31;55512;50.102;19.958;2023-06-22T05:42:55;25.60;60.67
68511;SHT31;55512;50.102;19.958;2023-06-22T05:45:21;25.63;60.62
68511;SHT31;55512;50.102;19.958;2023-06-22T05:47:46;25.68;60.58
68511;SHT31;55512;50.102;19.958;2023-06-22T05:50:14;25.74;60.48
68511;SHT31;55512;50.102;19.958;2023-06-22T05:52:39;25.81;60.48
68511;SHT31;55512;50.102;19.958;2023-06-22T05:55:05;25.86;60.41
68511;SHT31;55512;50.102;19.958;2023-06-22T05:57:31;25.91;60.34
68511;SHT31;55512;50.102;19.958;2023-06-22T05:59:56;25.95;60.29
68511;SHT31;55512;50.102;19.958;2023-06-22T06:02:21;26.00;60.21
68511;SHT31;55512;50.102;19.958;2023-06-22T06:04:47;26.03;60.28
68511;SHT31;55512;50.102;19.958;2023-06-22T06:07:12;26.03;60.48
68511;SHT31;55512;50.102;19.958;2023-06-22T06:09:38;26.06;60.51
68511;SHT31;55512;50.102;19.958;2023-06-22T06:12:03;26.12;60.49
68511;SHT31;55512;50.102;19.958;2023-06-22T06:14:29;26.18;60.40
68511;SHT31;55512;50.102;19.958;2023-06-22T06:16:55;26.25;60.34
68511;SHT31;55512;50.102;19.958;2023-06-22T06:19:20;26.31;60.27
68511;SHT31;55512;50.102;19.958;2023-06-22T06:21:45;26.32;60.18
68511;SHT31;55512;50.102;19.958;2023-06-22T06:24:11;26.40;60.15
68511;SHT31;55512;50.102;19.958;2023-06-22T06:26:37;26.45;60.19
68511;SHT31;55512;50.102;19.958;2023-06-22T06:29:02;26.49;60.12
68511;SHT31;55512;50.102;19.958;2023-06-22T06:31:28;26.53;60.09
68511;SHT31;55512;50.102;19.958;2023-06-22T06:33:53;26.57;60.03
68511;SHT31;55512;50.102;19.958;2023-06-22T06:36:20;26.64;60.04
68511;SHT31;55512;50.102;19.958;2023-06-22T06:38:46;26.71;60.09
68511;SHT31;55512;50.102;19.958;2023-06-22T06:41:13;26.69;60.26
68511;SHT31;55512;50.102;19.958;2023-06-22T06:43:40;26.62;60.34
68511;SHT31;55512;50.102;19.958;2023-06-22T06:46:07;26.48;60.64
68511;SHT31;55512;50.102;19.958;2023-06-22T06:48:33;26.47;60.80
68511;SHT31;55512;50.102;19.958;2023-06-22T06:50:58;26.57;60.61
68511;SHT31;55512;50.102;19.958;2023-06-22T06:53:24;26.71;60.46
68511;SHT31;55512;50.102;19.958;2023-06-22T06:55:49;26.79;60.49
68511;SHT31;55512;50.102;19.958;2023-06-22T06:58:15;26.86;60.59
68511;SHT31;55512;50.102;19.958;2023-06-22T07:00:41;26.94;60.62
68511;SHT31;55512;50.102;19.958;2023-06-22T07:03:08;27.05;60.26
68511;SHT31;55512;50.102;19.958;2023-06-22T07:05:34;27.10;59.93
68511;SHT31;55512;50.102;19.958;2023-06-22T07:08:00;27.15;59.80
68511;SHT31;55512;50.102;19.958;2023-06-22T07:10:26;27.23;59.56
68511;SHT31;55512;50.102;19.958;2023-06-22T07:12:53;27.24;59.52
68511;SHT31;55512;50.102;19.958;2023-06-22T07:15:18;27.27;59.46
68511;SHT31;55512;50.102;19.958;2023-06-22T07:17:43;27.37;59.49
68511;SHT31;55512;50.102;19.958;2023-06-22T07:20:09;27.47;59.38
68511;SHT31;55512;50.102;19.958;2023-06-22T07:22:38;27.51;58.74
68511;SHT31;55512;50.102;19.958;2023-06-22T07:25:08;27.48;58.61
68511;SHT31;55512;50.102;19.958;2023-06-22T07:27:44;27.53;58.49
68511;SHT31;55512;50.102;19.958;2023-06-22T07:30:24;27.60;58.41
68511;SHT31;55512;50.102;19.958;2023-06-22T07:32:50;27.62;58.50
68511;SHT31;55512;50.102;19.958;2023-06-22T07:35:16;27.67;58.05
68511;SHT31;55512;50.102;19.958;2023-06-22T07:37:41;27.73;57.58
68511;SHT31;55512;50.102;19.958;2023-06-22T07:40:07;27.78;57.28
68511;SHT31;55512;50.102;19.958;2023-06-22T07:42:34;27.82;57.59
68511;SHT31;55512;50.102;19.958;2023-06-22T07:45:00;27.82;57.48
68511;SHT31;55512;50.102;19.958;2023-06-22T07:47:27;27.74;57.72
68511;SHT31;55512;50.102;19.958;2023-06-22T07:49:54;27.68;57.83
68511;SHT31;55512;50.102;19.958;2023-06-22T07:52:22;27.61;57.69
68511;SHT31;55512;50.102;19.958;2023-06-22T07:54:48;27.58;57.44
68511;SHT31;55512;50.102;19.958;2023-06-22T07:57:14;27.64;57.42
68511;SHT31;55512;50.102;19.958;2023-06-22T07:59:39;27.65;57.36
68511;SHT31;55512;50.102;19.958;2023-06-22T08:02:05;27.65;57.48
68511;SHT31;55512;50.102;19.958;2023-06-22T08:04:30;27.68;57.44
68511;SHT31;55512;50.102;19.958;2023-06-22T08:06:59;27.71;57.28
68511;SHT31;55512;50.102;19.958;2023-06-22T08:09:24;27.71;56.78
68511;SHT31;55512;50.102;19.958;2023-06-22T08:11:49;27.76;57.16
68511;SHT31;55512;50.102;19.958;2023-06-22T08:14:15;27.87;57.00
68511;SHT31;55512;50.102;19.958;2023-06-22T08:16:41;27.97;56.63
68511;SHT31;55512;50.102;19.958;2023-06-22T08:19:07;28.08;56.73
68511;SHT31;55512;50.102;19.958;2023-06-22T08:21:32;28.16;56.45
68511;SHT31;55512;50.102;19.958;2023-06-22T08:23:58;28.21;56.06
68511;SHT31;55512;50.102;19.958;2023-06-22T08:26:23;28.23;55.62
68511;SHT31;55512;50.102;19.958;2023-06-22T08:28:49;28.24;55.46
68511;SHT31;55512;50.102;19.958;2023-06-22T08:31:14;28.30;55.26
68511;SHT31;55512;50.102;19.958;2023-06-22T08:33:40;28.35;55.21
68511;SHT31;55512;50.102;19.958;2023-06-22T08:36:06;28.36;54.85
68511;SHT31;55512;50.102;19.958;2023-06-22T08:38:33;28.44;54.57
68511;SHT31;55512;50.102;19.958;2023-06-22T08:40:58;28.51;54.37
68511;SHT31;55512;50.102;19.958;2023-06-22T08:43:25;28.48;54.12
68511;SHT31;55512;50.102;19.958;2023-06-22T08:45:50;28.43;53.91
68511;SHT31;55512;50.102;19.958;2023-06-22T08:48:16;28.46;53.64
68511;SHT31;55512;50.102;19.958;2023-06-22T08:50:41;28.41;53.47
68511;SHT31;55512;50.102;19.958;2023-06-22T08:53:06;28.38;53.94
68511;SHT31;55512;50.102;19.958;2023-06-22T08:55:33;28.35;53.83
68511;SHT31;55512;50.102;19.958;2023-06-22T08:57:59;28.34;53.96
68511;SHT31;55512;50.102;19.958;2023-06-22T09:00:24;28.39;53.95
68511;SHT31;55512;50.102;19.958;2023-06-22T09:02:50;28.38;53.77
68511;SHT31;55512;50.102;19.958;2023-06-22T09:05:15;28.43;54.01
68511;SHT31;55512;50.102;19.958;2023-06-22T09:07:41;28.49;54.32
68511;SHT31;55512;50.102;19.958;2023-06-22T09:10:07;28.49;53.26
68511;SHT31;55512;50.102;19.958;2023-06-22T09:12:33;28.47;52.63
68511;SHT31;55512;50.102;19.958;2023-06-22T09:14:59;28.47;52.30
68511;SHT31;55512;50.102;19.958;2023-06-22T09:17:26;28.48;52.28
68511;SHT31;55512;50.102;19.958;2023-06-22T09:19:52;28.49;52.44
68511;SHT31;55512;50.102;19.958;2023-06-22T09:22:17;28.41;52.55
68511;SHT31;55512;50.102;19.958;2023-06-22T09:24:43;28.38;52.61
68511;SHT31;55512;50.102;19.958;2023-06-22T09:27:08;28.44;52.17
68511;SHT31;55512;50.102;19.958;2023-06-22T09:29:34;28.49;52.14
68511;SHT31;55512;50.102;19.958;2023-06-22T09:31:59;28.53;51.90
68511;SHT31;55512;50.102;19.958;2023-06-22T09:34:26;28.55;51.92
68511;SHT31;55512;50.102;19.958;2023-06-22T09:36:52;28.62;52.47
68511;SHT31;55512;50.102;19.958;2023-06-22T09:39:17;28.61;52.71
68511;SHT31;55512;50.102;19.958;2023-06-22T09:41:44;28.60;52.50
68511;SHT31;55512;50.102;19.958;2023-06-22T09:44:09;28.60;52.06
68511;SHT31;55512;50.102;19.958;2023-06-22T09:46:35;28.55;52.47
68511;SHT31;55512;50.102;19.958;2023-06-22T09:49:03;28.61;52.43
68511;SHT31;55512;50.102;19.958;2023-06-22T09:51:29;28.63;52.47
68511;SHT31;55512;50.102;19.958;2023-06-22T09:53:54;28.72;51.83
68511;SHT31;55512;50.102;19.958;2023-06-22T09:56:20;28.72;51.10
68511;SHT31;55512;50.102;19.958;2023-06-22T09:58:45;28.78;50.89
68511;SHT31;55512;50.102;19.958;2023-06-22T10:01:12;28.89;50.48
68511;SHT31;55512;50.102;19.958;2023-06-22T10:03:41;28.99;50.16
68511;SHT31;55512;50.102;19.958;2023-06-22T10:06:07;29.02;49.28
68511;SHT31;55512;50.102;19.958;2023-06-22T10:08:34;29.05;49.68
68511;SHT31;55512;50.102;19.958;2023-06-22T10:11:00;29.08;49.89
68511;SHT31;55512;50.102;19.958;2023-06-22T10:13:26;29.10;49.98
68511;SHT31;55512;50.102;19.958;2023-06-22T10:15:51;29.16;49.80
68511;SHT31;55512;50.102;19.958;2023-06-22T10:18:18;29.11;50.37
68511;SHT31;55512;50.102;19.958;2023-06-22T10:20:46;29.14;50.72
68511;SHT31;55512;50.102;19.958;2023-06-22T10:23:18;29.15;50.39
68511;SHT31;55512;50.102;19.958;2023-06-22T10:25:44;29.08;50.52
68511;SHT31;55512;50.102;19.958;2023-06-22T10:28:10;29.20;50.34
68511;SHT31;55512;50.102;19.958;2023-06-22T10:30:38;29.38;49.99
68511;SHT31;55512;50.102;19.958;2023-06-22T10:33:11;29.37;48.93
68511;SHT31;55512;50.102;19.958;2023-06-22T10:35:37;29.30;48.96
68511;SHT31;55512;50.102;19.958;2023-06-22T10:38:03;29.34;49.02
68511;SHT31;55512;50.102;19.958;2023-06-22T10:40:29;29.44;48.87
68511;SHT31;55512;50.102;19.958;2023-06-22T10:42:55;29.55;48.47
68511;SHT31;55512;50.102;19.958;2023-06-22T10:45:21;29.64;48.38
68511;SHT31;55512;50.102;19.958;2023-06-22T10:47:46;29.75;48.18
68511;SHT31;55512;50.102;19.958;2023-06-22T10:50:12;29.82;48.02
68511;SHT31;55512;50.102;19.958;2023-06-22T10:52:39;29.84;47.76
68511;SHT31;55512;50.102;19.958;2023-06-22T10:55:06;29.88;47.99
68511;SHT31;55512;50.102;19.958;2023-06-22T10:57:33;29.92;48.10
68511;SHT31;55512;50.102;19.958;2023-06-22T10:59:58;29.99;47.79
68511;SHT31;55512;50.102;19.958;2023-06-22T11:02:24;30.07;47.81
68511;SHT31;55512;50.102;19.958;2023-06-22T11:04:49;30.20;47.66
68511;SHT31;55512;50.102;19.958;2023-06-22T11:07:15;30.30;47.34
68511;SHT31;55512;50.102;19.958;2023-06-22T11:09:42;30.41;47.04
68511;SHT31;55512;50.102;19.958;2023-06-22T11:12:08;30.44;46.50
68511;SHT31;55512;50.102;19.958;2023-06-22T11:14:34;30.47;46.35
68511;SHT31;55512;50.102;19.958;2023-06-22T11:16:59;30.40;46.38
68511;SHT31;55512;50.102;19.958;2023-06-22T11:19:25;30.43;46.37
68511;SHT31;55512;50.102;19.958;2023-06-22T11:21:50;30.52;46.54
68511;SHT31;55512;50.102;19.958;2023-06-22T11:24:16;30.65;46.34
68511;SHT31;55512;50.102;19.958;2023-06-22T11:26:42;30.80;46.12
68511;SHT31;55512;50.102;19.958;2023-06-22T11:29:08;30.94;46.07
68511;SHT31;55512;50.102;19.958;2023-06-22T11:31:34;31.00;45.99
68511;SHT31;55512;50.102;19.958;2023-06-22T11:34:01;31.07;45.84
68511;SHT31;55512;50.102;19.958;2023-06-22T11:36:27;31.19;45.27
68511;SHT31;55512;50.102;19.958;2023-06-22T11:38:54;31.24;44.80
68511;SHT31;55512;50.102;19.958;2023-06-22T11:41:20;31.36;44.61
68511;SHT31;55512;50.102;19.958;2023-06-22T11:43:45;31.42;44.29
68511;SHT31;55512;50.102;19.958;2023-06-22T11:46:11;31.38;44.41
68511;SHT31;55512;50.102;19.958;2023-06-22T11:48:36;31.45;44.43
68511;SHT31;55512;50.102;19.958;2023-06-22T11:51:02;31.44;44.14
68511;SHT31;55512;50.102;19.958;2023-06-22T11:53:28;31.50;44.48
68511;SHT31;55512;50.102;19.958;2023-06-22T11:55:54;31.54;44.39
68511;SHT31;55512;50.102;19.958;2023-06-22T11:58:20;31.53;44.32
68511;SHT31;55512;50.102;19.958;2023-06-22T12:00:46;31.66;44.13
68511;SHT31;55512;50.102;19.958;2023-06-22T12:03:13;31.78;43.40
68511;SHT31;55512;50.102;19.958;2023-06-22T12:05:40;31.76;42.48
68511;SHT31;55512;50.102;19.958;2023-06-22T12:08:06;31.62;42.68
68511;SHT31;55512;50.102;19.958;2023-06-22T12:10:31;31.69;42.95
68511;SHT31;55512;50.102;19.958;2023-06-22T12:12:57;31.81;42.58
68511;SHT31;55512;50.102;19.958;2023-06-22T12:15:24;31.85;42.49
68511;SHT31;55512;50.102;19.958;2023-06-22T12:17:51;32.00;42.66
68511;SHT31;55512;50.102;19.958;2023-06-22T12:20:16;32.24;42.57
68511;SHT31;55512;50.102;19.958;2023-06-22T12:22:42;32.49;42.21
68511;SHT31;55512;50.102;19.958;2023-06-22T12:25:08;32.58;42.06
68511;SHT31;55512;50.102;19.958;2023-06-22T12:27:34;32.63;41.73
68511;SHT31;55512;50.102;19.958;2023-06-22T12:30:01;32.73;41.50
68511;SHT31;55512;50.102;19.958;2023-06-22T12:32:27;32.84;41.16
68511;SHT31;55512;50.102;19.958;2023-06-22T12:34:53;32.95;41.18
68511;SHT31;55512;50.102;19.958;2023-06-22T12:37:18;32.94;40.36
68511;SHT31;55512;50.102;19.958;2023-06-22T12:39:44;32.98;40.82
68511;SHT31;55512;50.102;19.958;2023-06-22T12:42:09;33.14;40.39
68511;SHT31;55512;50.102;19.958;2023-06-22T12:44:38;33.21;40.47
68511;SHT31;55512;50.102;19.958;2023-06-22T12:47:04;33.42;40.00
68511;SHT31;55512;50.102;19.958;2023-06-22T12:49:30;33.61;39.29
68511;SHT31;55512;50.102;19.958;2023-06-22T12:51:56;33.50;39.39
68511;SHT31;55512;50.102;19.958;2023-06-22T12:54:21;33.42;39.57
68511;SHT31;55512;50.102;19.958;2023-06-22T12:56:46;33.50;39.50
68511;SHT31;55512;50.102;19.958;2023-06-22T12:59:12;33.69;39.23
68511;SHT31;55512;50.102;19.958;2023-06-22T13:01:37;33.83;39.47
68511;SHT31;55512;50.102;19.958;2023-06-22T13:04:03;34.01;39.27
68511;SHT31;55512;50.102;19.958;2023-06-22T13:06:29;34.13;39.44
68511;SHT31;55512;50.102;19.958;2023-06-22T13:08:55;34.28;39.09
68511;SHT31;55512;50.102;19.958;2023-06-22T13:11:20;34.43;38.95
68511;SHT31;55512;50.102;19.958;2023-06-22T13:13:46;34.52;38.76
68511;SHT31;55512;50.102;19.958;2023-06-22T13:16:12;34.65;38.78
68511;SHT31;55512;50.102;19.958;2023-06-22T13:18:37;34.90;38.24
68511;SHT31;55512;50.102;19.958;2023-06-22T13:21:03;35.03;37.90
68511;SHT31;55512;50.102;19.958;2023-06-22T13:23:29;35.09;37.46
68511;SHT31;55512;50.102;19.958;2023-06-22T13:25:55;35.08;37.17
68511;SHT31;55512;50.102;19.958;2023-06-22T13:28:21;35.02;37.40
68511;SHT31;55512;50.102;19.958;2023-06-22T13:30:46;34.93;37.25
68511;SHT31;55512;50.102;19.958;2023-06-22T13:33:13;34.94;37.10
68511;SHT31;55512;50.102;19.958;2023-06-22T13:35:39;35.08;37.02
68511;SHT31;55512;50.102;19.958;2023-06-22T13:38:07;35.17;36.62
68511;SHT31;55512;50.102;19.958;2023-06-22T13:40:36;35.07;36.99
68511;SHT31;55512;50.102;19.958;2023-06-22T13:43:03;35.13;36.56
68511;SHT31;55512;50.102;19.958;2023-06-22T13:45:30;35.10;36.72
68511;SHT31;55512;50.102;19.958;2023-06-22T13:47:56;34.89;36.37
68511;SHT31;55512;50.102;19.958;2023-06-22T13:50:22;34.71;36.96
68511;SHT31;55512;50.102;19.958;2023-06-22T13:52:47;34.63;36.86
68511;SHT31;55512;50.102;19.958;2023-06-22T13:55:13;34.67;36.81
68511;SHT31;55512;50.102;19.958;2023-06-22T13:57:39;34.82;36.99
68511;SHT31;55512;50.102;19.958;2023-06-22T14:00:06;35.10;37.26
68511;SHT31;55512;50.102;19.958;2023-06-22T14:02:37;35.27;37.00
68511;SHT31;55512;50.102;19.958;2023-06-22T14:05:03;35.53;36.62
68511;SHT31;55512;50.102;19.958;2023-06-22T14:07:29;35.60;36.10
68511;SHT31;55512;50.102;19.958;2023-06-22T14:09:54;35.54;36.17
68511;SHT31;55512;50.102;19.958;2023-06-22T14:12:20;35.32;35.74
68511;SHT31;55512;50.102;19.958;2023-06-22T14:14:45;35.05;36.18
68511;SHT31;55512;50.102;19.958;2023-06-22T14:17:11;35.12;36.56
68511;SHT31;55512;50.102;19.958;2023-06-22T14:19:36;35.33;36.61
68511;SHT31;55512;50.102;19.958;2023-06-22T14:22:02;35.53;36.48
68511;SHT31;55512;50.102;19.958;2023-06-22T14:24:28;35.65;35.98
68511;SHT31;55512;50.102;19.958;2023-06-22T14:26:54;35.64;35.64
68511;SHT31;55512;50.102;19.958;2023-06-22T14:29:20;35.24;35.68
68511;SHT31;55512;50.102;19.958;2023-06-22T14:31:47;35.04;36.28
68511;SHT31;55512;50.102;19.958;2023-06-22T14:34:14;35.19;36.29
68511;SHT31;55512;50.102;19.958;2023-06-22T14:36:40;35.47;36.14
68511;SHT31;55512;50.102;19.958;2023-06-22T14:39:06;35.81;36.21
68511;SHT31;55512;50.102;19.958;2023-06-22T14:41:32;36.19;35.74
68511;SHT31;55512;50.102;19.958;2023-06-22T14:43:58;36.50;35.18
68511;SHT31;55512;50.102;19.958;2023-06-22T14:46:23;36.69;34.75
68511;SHT31;55512;50.102;19.958;2023-06-22T14:48:49;36.60;34.57
68511;SHT31;55512;50.102;19.958;2023-06-22T14:51:14;36.45;35.04
68511;SHT31;55512;50.102;19.958;2023-06-22T14:53:40;36.48;34.65
68511;SHT31;55512;50.102;19.958;2023-06-22T14:56:06;36.60;34.35
68511;SHT31;55512;50.102;19.958;2023-06-22T14:58:33;36.59;34.51
68511;SHT31;55512;50.102;19.958;2023-06-22T15:01:00;36.76;34.58
68511;SHT31;55512;50.102;19.958;2023-06-22T15:03:27;37.24;33.57
68511;SHT31;55512;50.102;19.958;2023-06-22T15:05:55;38.28;32.53
68511;SHT31;55512;50.102;19.958;2023-06-22T15:08:21;39.26;31.39
68511;SHT31;55512;50.102;19.958;2023-06-22T15:10:47;40.22;30.70
68511;SHT31;55512;50.102;19.958;2023-06-22T15:13:13;41.20;29.62
68511;SHT31;55512;50.102;19.958;2023-06-22T15:15:38;42.32;28.85
68511;SHT31;55512;50.102;19.958;2023-06-22T15:18:04;43.49;27.99
68511;SHT31;55512;50.102;19.958;2023-06-22T15:20:29;44.56;26.97
68511;SHT31;55512;50.102;19.958;2023-06-22T15:22:56;45.53;26.23